createdAt,value
2023-12-05T00:02:19.177Z,9.90
2023-12-05T00:04:48.758Z,10.20
2023-12-05T00:07:16.446Z,10.52
2023-12-05T00:09:44.062Z,11.52
2023-12-05T00:12:11.619Z,12.25
2023-12-05T00:14:39.250Z,11.00
2023-12-05T00:17:06.818Z,10.70
2023-12-05T00:19:34.630Z,11.90
2023-12-05T00:22:03.589Z,11.52
2023-12-05T00:24:31.152Z,12.57
2023-12-05T00:26:58.833Z,12.52
2023-12-05T00:29:26.424Z,11.88
2023-12-05T00:31:54.257Z,13.68
2023-12-05T00:34:22.094Z,13.32
2023-12-05T00:36:50.181Z,13.75
2023-12-05T00:39:19.170Z,14.10
2023-12-05T00:41:47.977Z,14.02
2023-12-05T00:44:15.533Z,14.85
2023-12-05T00:46:43.108Z,15.35
2023-12-05T00:49:10.855Z,15.95
2023-12-05T00:51:38.613Z,16.15
2023-12-05T00:54:06.248Z,15.20
2023-12-05T00:56:35.159Z,16.25
2023-12-05T00:59:02.701Z,16.05
2023-12-05T01:01:30.444Z,15.75
2023-12-05T01:03:58.616Z,16.80
2023-12-05T01:06:26.419Z,16.13
2023-12-05T01:08:54.072Z,15.68
2023-12-05T01:11:21.857Z,17.17
2023-12-05T01:13:50.793Z,16.48
2023-12-05T01:16:18.367Z,14.82
2023-12-05T01:18:46.025Z,15.68
2023-12-05T01:21:13.658Z,14.80
2023-12-05T01:23:42.328Z,15.23
2023-12-05T01:26:09.877Z,15.55
2023-12-05T01:28:37.438Z,15.82
2023-12-05T01:31:06.748Z,15.70
2023-12-05T01:33:34.349Z,15.00
2023-12-05T01:36:01.889Z,14.02
2023-12-05T01:38:29.494Z,13.10
2023-12-05T01:40:57.036Z,14.32
2023-12-05T01:43:24.943Z,14.55
2023-12-05T01:45:53.354Z,15.30
2023-12-05T01:48:22.700Z,15.70
2023-12-05T01:50:50.799Z,15.35
2023-12-05T01:53:18.860Z,14.15
2023-12-05T01:55:46.720Z,13.32
2023-12-05T01:58:15.577Z,13.85
2023-12-05T02:00:43.537Z,14.85
2023-12-05T02:03:12.147Z,15.20
2023-12-05T02:05:41.232Z,14.57
2023-12-05T02:08:12.653Z,14.48
2023-12-05T02:10:40.683Z,14.65
2023-12-05T02:13:08.286Z,13.68
2023-12-05T02:15:35.939Z,15.27
2023-12-05T02:18:12.428Z,14.25
2023-12-05T02:20:48.696Z,13.40
2023-12-05T02:23:43.478Z,13.32
2023-12-05T02:26:21.078Z,14.95
2023-12-05T02:28:50.646Z,12.95
2023-12-05T02:31:18.741Z,13.00
2023-12-05T02:33:48.390Z,14.63
2023-12-05T02:36:38.030Z,13.07
2023-12-05T02:39:13.433Z,12.50
2023-12-05T02:41:46.469Z,13.90
2023-12-05T02:44:17.485Z,12.45
2023-12-05T02:46:46.560Z,12.02
2023-12-05T02:49:14.523Z,13.80
2023-12-05T02:51:42.829Z,12.80
2023-12-05T02:54:10.425Z,13.85
2023-12-05T02:56:38.121Z,12.52
2023-12-05T02:59:06.130Z,13.15
2023-12-05T03:01:40.593Z,14.07
2023-12-05T03:04:08.448Z,12.23
2023-12-05T03:06:36.261Z,12.68
2023-12-05T03:09:04.855Z,13.35
2023-12-05T03:11:32.864Z,12.25
2023-12-05T03:14:00.822Z,12.70
2023-12-05T03:16:28.499Z,12.45
2023-12-05T03:18:57.579Z,13.68
2023-12-05T03:21:25.648Z,14.55
2023-12-05T03:23:53.251Z,14.90
2023-12-05T03:26:21.255Z,14.52
2023-12-05T03:28:50.023Z,13.52
2023-12-05T03:31:17.655Z,14.52
2023-12-05T03:33:45.748Z,14.93
2023-12-05T03:36:15.342Z,16.02
2023-12-05T03:38:42.912Z,14.23
2023-12-05T03:41:10.896Z,13.65
2023-12-05T03:43:38.500Z,14.40
2023-12-05T03:46:06.585Z,13.93
2023-12-05T03:48:34.326Z,14.38
2023-12-05T03:51:02.091Z,14.32
2023-12-05T03:53:31.144Z,14.30
2023-12-05T03:55:58.677Z,14.68
2023-12-05T03:58:26.369Z,14.45
2023-12-05T04:00:53.981Z,15.18
2023-12-05T04:03:21.838Z,15.10
2023-12-05T04:05:49.537Z,15.52
2023-12-05T04:08:17.100Z,15.32
2023-12-05T04:10:45.935Z,14.98
2023-12-05T04:13:13.490Z,15.40
2023-12-05T04:15:41.700Z,14.45
2023-12-05T04:18:09.302Z,14.15
2023-12-05T04:20:36.959Z,15.57
2023-12-05T04:23:04.547Z,14.73
2023-12-05T04:25:32.188Z,15.88
2023-12-05T04:28:01.060Z,14.60
2023-12-05T04:30:28.646Z,15.95
2023-12-05T04:32:56.258Z,15.60
2023-12-05T04:35:23.799Z,15.10
2023-12-05T04:37:51.318Z,16.92
2023-12-05T04:40:20.186Z,14.60
2023-12-05T04:42:48.081Z,15.63
2023-12-05T04:45:17.361Z,15.80
2023-12-05T04:47:45.878Z,16.67
2023-12-05T04:50:13.518Z,15.45
2023-12-05T04:52:41.065Z,15.45
2023-12-05T04:55:09.332Z,15.55
2023-12-05T04:57:36.961Z,15.23
2023-12-05T05:00:07.129Z,15.35
2023-12-05T05:02:36.059Z,15.70
2023-12-05T05:05:03.888Z,15.63
2023-12-05T05:07:31.633Z,17.63
2023-12-05T05:09:59.253Z,15.73
2023-12-05T05:12:27.237Z,15.55
2023-12-05T05:14:54.821Z,15.05
2023-12-05T05:17:22.443Z,14.40
2023-12-05T05:19:51.371Z,15.70
2023-12-05T05:22:18.919Z,15.55
2023-12-05T05:24:46.499Z,14.35
2023-12-05T05:27:14.305Z,14.48
2023-12-05T05:29:41.902Z,14.55
2023-12-05T05:32:09.522Z,14.00
2023-12-05T05:34:37.125Z,16.00
2023-12-05T05:37:06.165Z,15.45
2023-12-05T05:39:34.426Z,13.55
2023-12-05T05:42:01.969Z,12.35
2023-12-05T05:44:29.815Z,13.02
2023-12-05T05:46:57.374Z,13.85
2023-12-05T05:49:25.311Z,15.27
2023-12-05T05:51:52.939Z,14.07
2023-12-05T05:54:23.078Z,15.48
2023-12-05T05:56:50.623Z,14.48
2023-12-05T05:59:18.349Z,14.80
2023-12-05T06:01:48.738Z,15.95
2023-12-05T06:04:16.410Z,17.10
2023-12-05T06:06:44.040Z,13.85
2023-12-05T06:09:11.581Z,15.85
2023-12-05T06:11:40.601Z,16.48
2023-12-05T06:14:08.294Z,15.90
2023-12-05T06:16:35.921Z,14.15
2023-12-05T06:19:03.635Z,12.70
2023-12-05T06:21:31.258Z,11.88
2023-12-05T06:24:00.183Z,11.73
2023-12-05T06:26:27.936Z,11.98
2023-12-05T06:28:56.871Z,11.90
2023-12-05T06:31:25.096Z,12.57
2023-12-05T06:33:52.934Z,14.07
2023-12-05T06:36:20.665Z,14.18
2023-12-05T06:38:48.270Z,15.18
2023-12-05T06:41:15.887Z,14.18
2023-12-05T06:43:43.457Z,14.15
2023-12-05T06:46:12.268Z,13.32
2023-12-05T06:48:39.969Z,14.35
2023-12-05T06:51:07.879Z,12.95
2023-12-05T06:53:39.820Z,12.82
2023-12-05T06:56:15.095Z,12.82
2023-12-05T06:58:43.204Z,14.32
2023-12-05T07:01:12.697Z,12.98
2023-12-05T07:03:47.336Z,12.70
2023-12-05T07:06:18.695Z,11.38
2023-12-05T07:08:46.314Z,11.75
2023-12-05T07:11:13.822Z,11.25
2023-12-05T07:13:41.420Z,11.85
2023-12-05T07:16:11.280Z,11.75
2023-12-05T07:18:40.383Z,12.55
2023-12-05T07:21:09.451Z,13.68
2023-12-05T07:23:37.067Z,13.43
2023-12-05T07:26:04.920Z,12.20
2023-12-05T07:28:32.533Z,13.70
2023-12-05T07:31:00.172Z,12.30
2023-12-05T07:33:27.924Z,11.15
2023-12-05T07:35:58.763Z,11.07
2023-12-05T07:38:26.362Z,12.40
2023-12-05T07:40:54.207Z,12.00
2023-12-05T07:43:21.748Z,10.93
2023-12-05T07:45:49.450Z,12.48
2023-12-05T07:48:17.163Z,12.20
2023-12-05T07:50:45.074Z,12.00
2023-12-05T07:53:14.090Z,12.10
2023-12-05T07:55:41.676Z,11.95
2023-12-05T07:58:09.214Z,11.77
2023-12-05T08:00:39.884Z,10.98
2023-12-05T08:03:07.537Z,11.35
2023-12-05T08:05:35.453Z,10.77
2023-12-05T08:08:03.018Z,11.00
2023-12-05T08:10:32.108Z,11.30
2023-12-05T08:12:59.744Z,10.88
2023-12-05T08:15:27.410Z,11.50
2023-12-05T08:17:55.042Z,12.32
2023-12-05T08:20:22.985Z,12.00
2023-12-05T08:22:50.782Z,11.57
2023-12-05T08:25:18.550Z,10.05
2023-12-05T08:27:47.506Z,10.13
2023-12-05T08:30:15.715Z,11.55
2023-12-05T08:32:43.954Z,10.43
2023-12-05T08:35:11.741Z,11.98
2023-12-05T08:37:39.477Z,14.25
2023-12-05T08:40:08.478Z,10.75
2023-12-05T08:42:36.320Z,10.98
2023-12-05T08:45:05.965Z,10.48
2023-12-05T08:47:33.518Z,11.50
2023-12-05T08:50:01.058Z,10.55
2023-12-05T08:52:28.583Z,11.20
2023-12-05T08:54:56.232Z,11.02
2023-12-05T08:57:24.095Z,11.80
2023-12-05T08:59:51.625Z,13.88
2023-12-05T09:02:22.212Z,11.57
2023-12-05T09:04:49.933Z,11.82
2023-12-05T09:07:18.598Z,10.13
2023-12-05T09:09:46.356Z,11.63
2023-12-05T09:12:13.990Z,11.32
2023-12-05T09:14:41.744Z,11.45
2023-12-05T09:17:11.164Z,11.45
2023-12-05T09:19:40.247Z,12.00
2023-12-05T09:22:07.805Z,10.85
2023-12-05T09:24:35.493Z,10.85
2023-12-05T09:27:03.777Z,10.93
2023-12-05T09:29:32.183Z,11.40
2023-12-05T09:31:59.723Z,10.02
2023-12-05T09:34:27.334Z,11.68
2023-12-05T09:36:56.282Z,12.00
2023-12-05T09:39:24.686Z,9.90
2023-12-05T09:41:54.232Z,10.10
2023-12-05T09:44:23.315Z,11.40
2023-12-05T09:46:54.877Z,12.00
2023-12-05T09:49:27.954Z,9.98
2023-12-05T09:51:57.129Z,9.52
2023-12-05T09:54:27.050Z,9.52
2023-12-05T09:56:56.514Z,9.82
2023-12-05T09:59:24.282Z,10.18
2023-12-05T10:01:54.861Z,9.77
2023-12-05T10:04:24.281Z,11.93
2023-12-05T10:06:53.447Z,9.90
2023-12-05T10:09:24.269Z,9.45
2023-12-05T10:11:52.612Z,9.40
2023-12-05T10:14:20.317Z,8.88
2023-12-05T10:16:48.763Z,8.18
2023-12-05T10:19:16.686Z,7.93
2023-12-05T10:21:45.405Z,9.07
2023-12-05T10:24:40.084Z,8.82
2023-12-05T10:27:09.036Z,10.00
2023-12-05T10:29:39.259Z,9.23
2023-12-05T10:32:08.539Z,8.63
2023-12-05T10:34:50.154Z,8.38
2023-12-05T10:37:22.332Z,8.32
2023-12-05T10:39:52.119Z,9.00
2023-12-05T10:42:20.192Z,8.13
2023-12-05T10:44:48.532Z,7.97
2023-12-05T10:47:19.288Z,7.32
2023-12-05T10:49:50.145Z,8.47
2023-12-05T10:52:17.988Z,8.10
2023-12-05T10:54:45.896Z,8.32
2023-12-05T10:57:14.831Z,7.78
2023-12-05T10:59:42.488Z,7.90
2023-12-05T11:02:14.300Z,6.55
2023-12-05T11:04:42.804Z,7.50
2023-12-05T11:07:10.582Z,7.40
2023-12-05T11:09:38.165Z,6.18
2023-12-05T11:12:07.990Z,6.35
2023-12-05T11:14:41.689Z,5.88
2023-12-05T11:17:12.691Z,5.85
2023-12-05T11:20:02.205Z,5.65
2023-12-05T11:22:39.553Z,5.90
2023-12-05T11:25:30.828Z,5.43
2023-12-05T11:28:09.395Z,5.30
2023-12-05T11:31:07.602Z,6.07
2023-12-05T11:33:49.901Z,5.47
2023-12-05T11:36:30.653Z,5.88
2023-12-05T11:39:00.505Z,5.78
2023-12-05T11:41:28.862Z,5.18
2023-12-05T11:44:20.075Z,4.97
2023-12-05T11:46:49.636Z,4.80
2023-12-05T11:49:35.767Z,4.25
2023-12-05T11:52:10.336Z,4.05
2023-12-05T11:54:38.169Z,3.38
2023-12-05T11:57:13.808Z,3.08
2023-12-05T11:59:42.232Z,2.17
2023-12-05T12:02:14.237Z,2.53
2023-12-05T12:04:42.097Z,3.03
2023-12-05T12:07:09.763Z,3.00
2023-12-05T12:09:42.072Z,3.58
2023-12-05T12:12:11.160Z,3.33
2023-12-05T12:14:42.054Z,3.10
2023-12-05T12:17:12.771Z,3.10
2023-12-05T12:19:40.659Z,3.22
2023-12-05T12:22:09.675Z,4.20
2023-12-05T12:24:38.552Z,3.75
2023-12-05T12:27:08.211Z,3.42
2023-12-05T12:29:37.135Z,3.15
2023-12-05T12:32:13.584Z,2.30
2023-12-05T12:34:44.647Z,2.13
2023-12-05T12:37:18.176Z,2.55
2023-12-05T12:39:50.691Z,1.77
2023-12-05T12:42:18.976Z,1.88
2023-12-05T12:44:47.343Z,2.95
2023-12-05T12:47:17.088Z,3.00
2023-12-05T12:49:44.818Z,3.00
2023-12-05T12:52:12.681Z,2.80
2023-12-05T12:54:41.409Z,2.92
2023-12-05T12:57:09.096Z,3.38
2023-12-05T12:59:37.810Z,3.03
2023-12-05T13:02:07.843Z,3.25
2023-12-05T13:04:38.484Z,3.67
2023-12-05T13:07:06.548Z,3.28
2023-12-05T13:09:34.590Z,3.65
2023-12-05T13:12:02.477Z,3.40
2023-12-05T13:14:30.041Z,3.65
2023-12-05T13:16:57.588Z,3.53
2023-12-05T13:19:28.131Z,3.25
2023-12-05T13:21:57.368Z,3.90
2023-12-05T13:24:24.928Z,3.33
2023-12-05T13:26:52.924Z,3.08
2023-12-05T13:29:21.206Z,3.10
2023-12-05T13:31:48.813Z,2.95
2023-12-05T13:34:16.586Z,2.65
2023-12-05T13:36:44.586Z,2.88
2023-12-05T13:39:16.313Z,3.03
2023-12-05T13:41:44.408Z,2.78
2023-12-05T13:44:11.907Z,3.10
2023-12-05T13:46:40.275Z,2.70
2023-12-05T13:49:08.222Z,2.70
2023-12-05T13:51:36.520Z,2.80
2023-12-05T13:54:05.080Z,2.92
2023-12-05T13:56:34.369Z,3.20
2023-12-05T13:59:02.022Z,2.80
2023-12-05T14:01:29.685Z,2.50
2023-12-05T14:03:58.363Z,3.00
2023-12-05T14:06:26.168Z,2.40
2023-12-05T14:08:53.765Z,2.63
2023-12-05T14:11:21.257Z,1.95
2023-12-05T14:13:50.150Z,2.67
2023-12-05T14:16:17.778Z,2.55
2023-12-05T14:18:45.336Z,2.58
2023-12-05T14:21:12.906Z,2.70
2023-12-05T14:23:40.681Z,3.10
2023-12-05T14:26:08.449Z,2.53
2023-12-05T14:28:35.020Z,2.33
2023-12-05T14:31:03.979Z,2.47
2023-12-05T14:33:31.673Z,2.17
2023-12-05T14:35:59.285Z,2.03
2023-12-05T14:38:26.943Z,2.17
2023-12-05T14:40:54.459Z,2.28
2023-12-05T14:43:21.968Z,2.40
2023-12-05T14:45:49.525Z,2.30
2023-12-05T14:48:18.476Z,2.22
2023-12-05T14:50:46.084Z,2.55
2023-12-05T14:53:13.759Z,2.33
2023-12-05T14:55:41.334Z,2.25
2023-12-05T14:58:09.347Z,2.08
2023-12-05T15:00:37.424Z,2.05
2023-12-05T15:03:05.456Z,2.55
2023-12-05T15:05:34.383Z,2.80
2023-12-05T15:08:03.089Z,2.63
2023-12-05T15:10:31.752Z,2.38
2023-12-05T15:12:59.324Z,2.15
2023-12-05T15:15:27.335Z,2.92
2023-12-05T15:17:55.028Z,2.63
2023-12-05T15:20:24.249Z,2.75
2023-12-05T15:22:54.210Z,3.00
2023-12-05T15:25:21.983Z,2.80
2023-12-05T15:27:49.625Z,2.90
2023-12-05T15:30:17.348Z,2.72
2023-12-05T15:32:51.367Z,2.67
2023-12-05T15:35:19.803Z,2.42
2023-12-05T15:37:47.390Z,2.55
2023-12-05T15:40:17.257Z,2.90
2023-12-05T15:42:46.094Z,2.90
2023-12-05T15:45:14.351Z,2.90
2023-12-05T15:47:44.057Z,2.83
2023-12-05T15:50:12.149Z,3.60
2023-12-05T15:52:40.082Z,2.45
2023-12-05T15:55:08.279Z,2.25
2023-12-05T15:57:37.607Z,2.28
2023-12-05T16:00:06.260Z,2.05
2023-12-05T16:02:33.915Z,2.28
2023-12-05T16:05:01.601Z,2.17
2023-12-05T16:07:29.420Z,2.17
2023-12-05T16:09:57.127Z,2.45
2023-12-05T16:12:24.754Z,2.20
2023-12-05T16:14:53.950Z,2.20
2023-12-05T16:17:21.674Z,2.10
2023-12-05T16:19:49.572Z,2.42
2023-12-05T16:22:17.185Z,2.25
2023-12-05T16:24:44.758Z,2.25
2023-12-05T16:27:12.355Z,2.10
2023-12-05T16:29:39.898Z,2.13
2023-12-05T16:32:09.315Z,2.67
2023-12-05T16:34:36.968Z,3.10
2023-12-05T16:37:04.887Z,2.70
2023-12-05T16:39:32.575Z,2.33
2023-12-05T16:42:00.210Z,3.72
2023-12-05T16:44:27.804Z,3.80
2023-12-05T16:46:55.362Z,2.60
2023-12-05T16:49:24.984Z,2.53
2023-12-05T16:51:53.247Z,2.70
2023-12-05T16:54:20.833Z,2.10
2023-12-05T16:56:48.693Z,2.42
2023-12-05T16:59:25.037Z,2.50
2023-12-05T17:01:56.291Z,2.13
2023-12-05T17:04:25.310Z,2.42
2023-12-05T17:06:55.638Z,2.67
2023-12-05T17:09:23.409Z,2.75
2023-12-05T17:11:50.936Z,3.10
2023-12-05T17:14:18.444Z,3.05
2023-12-05T17:16:45.959Z,2.70
2023-12-05T17:19:13.597Z,3.15
2023-12-05T17:21:42.532Z,3.30
2023-12-05T17:24:10.133Z,3.00
2023-12-05T17:26:37.648Z,3.30
2023-12-05T17:29:05.552Z,3.50
2023-12-05T17:31:33.145Z,3.30
2023-12-05T17:34:01.150Z,4.10
2023-12-05T17:36:28.859Z,3.95
2023-12-05T17:38:57.781Z,4.43
2023-12-05T17:41:25.334Z,4.10
2023-12-05T17:43:52.853Z,3.53
2023-12-05T17:46:20.429Z,2.72
2023-12-05T17:48:48.123Z,3.33
2023-12-05T17:51:15.769Z,3.22
2023-12-05T17:53:43.355Z,3.30
2023-12-05T17:56:12.673Z,4.13
2023-12-05T17:58:40.318Z,5.28
2023-12-05T18:01:09.036Z,6.35
2023-12-05T18:03:36.771Z,5.95
2023-12-05T18:06:04.738Z,4.60
2023-12-05T18:08:32.372Z,4.90
2023-12-05T18:11:00.264Z,5.20
2023-12-05T18:13:29.186Z,4.70
2023-12-05T18:15:56.775Z,4.88
2023-12-05T18:18:24.650Z,5.80
2023-12-05T18:20:52.321Z,6.00
2023-12-05T18:23:19.887Z,6.35
2023-12-05T18:25:47.436Z,6.00
2023-12-05T18:28:16.314Z,5.45
2023-12-05T18:30:45.305Z,5.07
2023-12-05T18:33:13.123Z,5.22
2023-12-05T18:35:40.731Z,5.75
2023-12-05T18:38:09.122Z,8.00
2023-12-05T18:40:36.643Z,6.10
2023-12-05T18:43:04.414Z,5.78
2023-12-05T18:45:32.923Z,6.07
2023-12-05T18:48:01.933Z,7.28
2023-12-05T18:50:29.580Z,6.45
2023-12-05T18:52:58.276Z,7.90
2023-12-05T18:55:26.135Z,6.45
2023-12-05T18:57:54.948Z,7.03
2023-12-05T19:00:22.554Z,7.68
2023-12-05T19:02:51.273Z,6.43
2023-12-05T19:05:20.298Z,6.13
2023-12-05T19:07:48.779Z,5.72
2023-12-05T19:10:16.472Z,5.63
2023-12-05T19:12:46.096Z,5.82
2023-12-05T19:15:13.811Z,5.85
2023-12-05T19:17:41.533Z,5.90
2023-12-05T19:20:10.240Z,4.40
2023-12-05T19:22:38.155Z,5.20
2023-12-05T19:25:07.221Z,7.15
2023-12-05T19:27:35.675Z,10.98
2023-12-05T19:30:05.022Z,5.93
2023-12-05T19:32:32.663Z,5.88
2023-12-05T19:35:00.384Z,5.30
2023-12-05T19:37:28.055Z,5.55
2023-12-05T19:39:56.963Z,6.10
2023-12-05T19:42:24.583Z,5.55
2023-12-05T19:44:52.160Z,6.05
2023-12-05T19:47:23.800Z,5.13
2023-12-05T19:49:51.956Z,5.32
2023-12-05T19:52:19.753Z,6.35
2023-12-05T19:54:47.343Z,5.43
2023-12-05T19:57:16.417Z,6.07
2023-12-05T19:59:45.704Z,6.53
2023-12-05T20:02:13.371Z,7.32
2023-12-05T20:04:41.300Z,6.90
2023-12-05T20:07:09.312Z,11.95
2023-12-05T20:09:38.105Z,7.90
2023-12-05T20:12:06.510Z,6.85
2023-12-05T20:14:35.455Z,6.25
2023-12-05T20:17:04.335Z,6.55
2023-12-05T20:19:32.362Z,5.85
2023-12-05T20:22:00.221Z,6.80
2023-12-05T20:24:27.914Z,6.15
2023-12-05T20:26:55.454Z,6.60
2023-12-05T20:29:24.472Z,6.25
2023-12-05T20:31:53.380Z,5.22
2023-12-05T20:34:21.008Z,5.43
2023-12-05T20:36:48.654Z,5.45
2023-12-05T20:39:16.235Z,5.15
2023-12-05T20:41:43.870Z,5.30
2023-12-05T20:44:11.685Z,4.05
2023-12-05T20:46:39.252Z,4.78
2023-12-05T20:49:08.286Z,5.53
2023-12-05T20:51:35.886Z,6.43
2023-12-05T20:54:03.421Z,6.80
2023-12-05T20:56:30.993Z,6.65
2023-12-05T20:58:58.806Z,5.70
2023-12-05T21:01:26.399Z,7.75
2023-12-05T21:03:54.368Z,10.20
2023-12-05T21:06:23.548Z,9.10
2023-12-05T21:09:10.776Z,9.13
2023-12-05T21:11:38.578Z,7.72
2023-12-05T21:14:06.912Z,7.72
2023-12-05T21:16:35.363Z,7.20
2023-12-05T21:19:03.025Z,6.05
2023-12-05T21:21:32.030Z,4.85
2023-12-05T21:23:59.684Z,4.72
2023-12-05T21:26:27.228Z,4.60
2023-12-05T21:28:54.835Z,5.82
2023-12-05T21:31:22.374Z,4.90
2023-12-05T21:33:50.043Z,4.55
2023-12-05T21:36:24.899Z,4.57
2023-12-05T21:38:58.363Z,4.10
2023-12-05T21:41:27.082Z,4.03
2023-12-05T21:43:54.632Z,4.10
2023-12-05T21:46:23.842Z,4.78
2023-12-05T21:48:51.823Z,4.65
2023-12-05T21:51:19.522Z,5.95
2023-12-05T21:53:47.091Z,4.97
2023-12-05T21:56:16.035Z,4.90
2023-12-05T21:58:43.573Z,4.57
2023-12-05T22:01:12.596Z,4.70
2023-12-05T22:03:40.602Z,4.50
2023-12-05T22:06:09.266Z,3.75
2023-12-05T22:08:37.198Z,2.97
2023-12-05T22:11:07.075Z,2.60
2023-12-05T22:13:35.942Z,2.00
2023-12-05T22:16:05.152Z,2.10
2023-12-05T22:18:33.070Z,1.60
2023-12-05T22:21:02.410Z,1.55
2023-12-05T22:23:33.569Z,1.63
2023-12-05T22:26:03.153Z,1.45
2023-12-05T22:28:32.608Z,1.55
2023-12-05T22:31:01.706Z,1.33
2023-12-05T22:33:29.661Z,1.02
2023-12-05T22:35:58.154Z,1.35
2023-12-05T22:38:25.854Z,1.58
2023-12-05T22:40:53.508Z,2.10
2023-12-05T22:43:21.134Z,1.40
2023-12-05T22:45:48.740Z,1.67
2023-12-05T22:48:17.795Z,1.58
2023-12-05T22:50:45.532Z,2.22
2023-12-05T22:53:13.103Z,0.75
2023-12-05T22:55:40.866Z,1.58
2023-12-05T22:58:08.487Z,1.30
2023-12-05T23:00:36.190Z,1.00
2023-12-05T23:03:03.877Z,0.88
2023-12-05T23:05:32.855Z,1.20
2023-12-05T23:08:00.485Z,1.10
2023-12-05T23:10:28.190Z,1.10
2023-12-05T23:12:55.826Z,0.82
2023-12-05T23:15:23.457Z,0.90
2023-12-05T23:17:51.066Z,1.58
2023-12-05T23:20:18.801Z,0.93
2023-12-05T23:22:47.706Z,0.98
2023-12-05T23:25:15.666Z,1.40
2023-12-05T23:27:43.330Z,1.58
2023-12-05T23:30:12.791Z,1.30
2023-12-05T23:32:40.418Z,1.10
2023-12-05T23:35:08.616Z,0.80
2023-12-05T23:37:36.197Z,0.68
2023-12-05T23:40:06.224Z,0.80
2023-12-05T23:42:33.902Z,0.73
2023-12-05T23:45:01.585Z,0.80
2023-12-05T23:47:29.572Z,1.23
2023-12-05T23:49:57.741Z,2.20
2023-12-05T23:52:25.281Z,2.10
2023-12-05T23:54:52.931Z,2.17
2023-12-05T23:57:22.073Z,1.50
2023-12-05T23:59:49.832Z,1.42
